Time;durP1;ratioP1;P1;durP2;ratioP2;P2;SDS_P1;SDS_P2;PMS_P1;PMS_P2;Temp;Humidity;BMP_temperature;BMP_pressure;BME280_temperature;BME280_humidity;BME280_pressure;Samples;Min_cycle;Max_cycle;Signal;HPM_P1;HPM_P2
2023/01/07 00:01:20;;;;;;;1.38;1.30;;;;;;;;;;5032684;28;20057;-72
2023/01/07 00:03:46;;;;;;;0.95;0.95;;;;;;;;;;5031691;28;20481;-72
2023/01/07 00:06:13;;;;;;;4.60;4.35;;;;;;;;;;5032177;28;20025;-72
2023/01/07 00:08:39;;;;;;;1.13;1.13;;;;;;;;;;5031216;28;20022;-72
2023/01/07 00:11:06;;;;;;;3.22;3.03;;;;;;;;;;5031777;28;20457;-72
2023/01/07 00:13:32;;;;;;;0.68;0.68;;;;;;;;;;5031809;28;20465;-72
2023/01/07 00:15:58;;;;;;;1.02;1.02;;;;;;;;;;5032841;28;20374;-72
2023/01/07 00:18:23;;;;;;;1.05;1.05;;;;;;;;;;5035648;28;20033;-72
2023/01/07 00:20:49;;;;;;;2.00;1.90;;;;;;;;;;5035875;28;20078;-72
2023/01/07 00:23:14;;;;;;;0.65;0.65;;;;;;;;;;5018232;28;20064;-73
2023/01/07 00:25:40;;;;;;;0.20;0.20;;;;;;;;;;5035709;28;20420;-73
2023/01/07 00:28:05;;;;;;;7.20;5.13;;;;;;;;;;5035545;28;20481;-73
2023/01/07 00:30:31;;;;;;;2.08;1.95;;;;;;;;;;5017884;28;20060;-73
2023/01/07 00:33:15;;;;;;;4.00;3.78;;;;;;;;;;5035429;28;20061;-72
2023/01/07 00:35:43;;;;;;;3.90;3.67;;;;;;;;;;5001901;28;20026;-72
2023/01/07 00:38:09;;;;;;;2.40;2.25;;;;;;;;;;5017222;28;20030;-75
2023/01/07 00:40:36;;;;;;;1.23;1.23;;;;;;;;;;5017562;28;20124;-72
2023/01/07 00:43:03;;;;;;;2.15;2.05;;;;;;;;;;5034952;28;20112;-73
2023/01/07 00:45:31;;;;;;;6.90;5.93;;;;;;;;;;5033815;28;20033;-72
2023/01/07 00:48:00;;;;;;;2.38;2.25;;;;;;;;;;5028979;28;20028;-74
2023/01/07 00:50:26;;;;;;;0.20;0.20;;;;;;;;;;5023699;28;20025;-74
2023/01/07 00:52:52;;;;;;;0.30;0.30;;;;;;;;;;5026697;28;20488;-75
2023/01/07 00:55:17;;;;;;;2.53;2.42;;;;;;;;;;5034804;28;20029;-75
2023/01/07 00:57:43;;;;;;;1.13;1.13;;;;;;;;;;5035094;28;20021;-75
2023/01/07 01:00:11;;;;;;;3.33;1.27;;;;;;;;;;5016870;28;20025;-73
2023/01/07 01:02:36;;;;;;;10.88;3.63;;;;;;;;;;5034680;28;20105;-74
2023/01/07 01:05:02;;;;;;;0.30;0.30;;;;;;;;;;5035152;28;20029;-74
2023/01/07 01:07:27;;;;;;;0.20;0.20;;;;;;;;;;5033130;28;20490;-74
2023/01/07 01:09:53;;;;;;;0.17;0.17;;;;;;;;;;5034732;28;20034;-73
2023/01/07 01:12:18;;;;;;;0.10;0.10;;;;;;;;;;5033458;28;20124;-73
2023/01/07 01:14:44;;;;;;;0.20;0.20;;;;;;;;;;5034538;28;20025;-72
2023/01/07 01:17:09;;;;;;;0.40;0.40;;;;;;;;;;5016836;28;20025;-73
2023/01/07 01:19:35;;;;;;;0.70;0.70;;;;;;;;;;5016502;28;20018;-74
2023/01/07 01:22:00;;;;;;;0.90;0.52;;;;;;;;;;5016717;28;20025;-74
2023/01/07 01:24:25;;;;;;;0.30;0.30;;;;;;;;;;5034463;28;20473;-73
2023/01/07 01:26:51;;;;;;;1.15;1.08;;;;;;;;;;5032993;28;20021;-73
2023/01/07 01:29:16;;;;;;;1.92;1.80;;;;;;;;;;5000096;28;20043;-72
2023/01/07 01:31:42;;;;;;;1.10;1.10;;;;;;;;;;5015782;28;20064;-73
2023/01/07 01:34:08;;;;;;;10.05;5.07;;;;;;;;;;5033017;28;20017;-73
2023/01/07 01:36:33;;;;;;;1.38;1.33;;;;;;;;;;5033000;28;20116;-73
2023/01/07 01:38:59;;;;;;;0.25;0.25;;;;;;;;;;5034120;28;20041;-73
2023/01/07 01:41:28;;;;;;;0.20;0.20;;;;;;;;;;5016429;28;20033;-72
2023/01/07 01:43:56;;;;;;;1.27;1.27;;;;;;;;;;5032717;28;20377;-72
2023/01/07 01:46:36;;;;;;;0.20;0.20;;;;;;;;;;5032130;28;20109;-72
2023/01/07 01:49:30;;;;;;;0.40;0.40;;;;;;;;;;5016147;28;20079;-73
2023/01/07 01:52:04;;;;;;;5.80;5.35;;;;;;;;;;5030866;28;20088;-73
2023/01/07 01:54:30;;;;;;;0.17;0.17;;;;;;;;;;5015940;28;20392;-73
2023/01/07 01:56:59;;;;;;;1.10;1.02;;;;;;;;;;5032449;28;20025;-72
2023/01/07 01:59:28;;;;;;;0.35;0.35;;;;;;;;;;5032510;28;20029;-72
2023/01/07 02:01:55;;;;;;;0.17;0.17;;;;;;;;;;5014816;28;20029;-72
2023/01/07 02:04:22;;;;;;;6.47;5.93;;;;;;;;;;5033679;28;20024;-72
2023/01/07 02:07:07;;;;;;;0.40;0.40;;;;;;;;;;4999535;28;20044;-72
2023/01/07 02:09:35;;;;;;;0.50;0.50;;;;;;;;;;5032575;28;20029;-72
2023/01/07 02:12:06;;;;;;;2.75;2.60;;;;;;;;;;5015829;28;20068;-72
2023/01/07 02:14:50;;;;;;;7.53;3.92;;;;;;;;;;5033750;28;20030;-72
2023/01/07 02:17:30;;;;;;;0.70;0.70;;;;;;;;;;5033606;28;20029;-73
2023/01/07 02:20:09;;;;;;;0.20;0.20;;;;;;;;;;5033371;28;20054;-72
2023/01/07 02:22:38;;;;;;;0.20;0.20;;;;;;;;;;5033708;28;20026;-71
2023/01/07 02:25:03;;;;;;;0.50;0.50;;;;;;;;;;5033548;28;20097;-72
2023/01/07 02:27:37;;;;;;;0.10;0.10;;;;;;;;;;5032308;28;20034;-72
2023/01/07 02:30:15;;;;;;;0.30;0.30;;;;;;;;;;5015626;28;20025;-72
2023/01/07 02:32:40;;;;;;;2.47;2.38;;;;;;;;;;5015703;28;20037;-72
2023/01/07 02:35:16;;;;;;;0.75;0.75;;;;;;;;;;5033098;28;20515;-72
2023/01/07 02:37:42;;;;;;;0.57;0.57;;;;;;;;;;5015638;28;20373;-72
2023/01/07 02:40:13;;;;;;;4.35;2.65;;;;;;;;;;5033023;28;20049;-73
2023/01/07 02:42:58;;;;;;;0.63;0.63;;;;;;;;;;5015427;28;20049;-72
2023/01/07 02:45:28;;;;;;;0.75;0.75;;;;;;;;;;5033651;28;20026;-72
2023/01/07 02:48:02;;;;;;;0.43;0.43;;;;;;;;;;5031921;28;20025;-72
2023/01/07 02:50:27;;;;;;;0.30;0.30;;;;;;;;;;5015159;28;20025;-72
2023/01/07 02:52:53;;;;;;;0.15;0.15;;;;;;;;;;5033137;28;20057;-72
2023/01/07 02:55:38;;;;;;;0.38;0.38;;;;;;;;;;5033055;28;20032;-72
2023/01/07 02:58:23;;;;;;;0.30;0.30;;;;;;;;;;5015570;28;20037;-73
2023/01/07 03:01:16;;;;;;;0.95;0.95;;;;;;;;;;5033214;28;20032;-73
2023/01/07 03:03:50;;;;;;;0.30;0.30;;;;;;;;;;5032930;28;20022;-73
2023/01/07 03:06:18;;;;;;;0.30;0.30;;;;;;;;;;5032761;28;20037;-73
2023/01/07 03:08:53;;;;;;;0.93;0.93;;;;;;;;;;5015433;28;20076;-73
2023/01/07 03:11:20;;;;;;;0.35;0.35;;;;;;;;;;5015538;28;20052;-73
2023/01/07 03:13:47;;;;;;;0.32;0.32;;;;;;;;;;5019196;28;20076;-72
2023/01/07 03:16:16;;;;;;;0.80;0.73;;;;;;;;;;5035440;28;20029;-72
2023/01/07 03:18:45;;;;;;;0.52;0.52;;;;;;;;;;5037038;28;20053;-72
2023/01/07 03:21:12;;;;;;;0.22;0.22;;;;;;;;;;5026432;28;20025;-72
2023/01/07 03:23:40;;;;;;;0.85;0.85;;;;;;;;;;5038754;28;20021;-72
2023/01/07 03:26:06;;;;;;;5.88;4.93;;;;;;;;;;5038816;28;20048;-72
2023/01/07 03:28:36;;;;;;;0.10;0.10;;;;;;;;;;5022197;28;20025;-72
2023/01/07 03:31:02;;;;;;;0.98;0.98;;;;;;;;;;5022175;28;20041;-74
2023/01/07 03:33:32;;;;;;;0.75;0.75;;;;;;;;;;5038942;28;20025;-74
2023/01/07 03:35:59;;;;;;;1.13;1.05;;;;;;;;;;5037340;28;20032;-74
2023/01/07 03:38:25;;;;;;;7.68;7.13;;;;;;;;;;5018192;28;20481;-74
2023/01/07 03:40:50;;;;;;;0.20;0.20;;;;;;;;;;5036613;28;20529;-74
2023/01/07 03:43:21;;;;;;;1.33;1.23;;;;;;;;;;5018469;28;20030;-74
2023/01/07 03:45:47;;;;;;;0.20;0.20;;;;;;;;;;5018571;28;20091;-74
2023/01/07 03:48:12;;;;;;;0.30;0.30;;;;;;;;;;5018764;28;20372;-75
2023/01/07 03:50:38;;;;;;;1.67;1.58;;;;;;;;;;5036360;28;20079;-74
2023/01/07 03:53:05;;;;;;;0.10;0.10;;;;;;;;;;5018596;28;20076;-72
2023/01/07 03:55:33;;;;;;;0.68;0.68;;;;;;;;;;5018441;28;20037;-73
2023/01/07 03:57:58;;;;;;;0.30;0.30;;;;;;;;;;5018328;28;20025;-72
2023/01/07 04:00:25;;;;;;;0.10;0.10;;;;;;;;;;5036371;28;20067;-72
2023/01/07 04:02:57;;;;;;;0.47;0.47;;;;;;;;;;5022232;28;20461;-74
2023/01/07 04:05:30;;;;;;;3.85;3.55;;;;;;;;;;5034484;28;20055;-74
2023/01/07 04:07:56;;;;;;;0.20;0.20;;;;;;;;;;5051752;28;20024;-73
2023/01/07 04:10:24;;;;;;;0.20;0.20;;;;;;;;;;5052130;28;20032;-73
2023/01/07 04:12:50;;;;;;;0.25;0.25;;;;;;;;;;5034334;28;20080;-75
2023/01/07 04:15:16;;;;;;;1.23;1.13;;;;;;;;;;5034371;28;20048;-74
2023/01/07 04:17:41;;;;;;;0.20;0.20;;;;;;;;;;5051441;28;20025;-72
2023/01/07 04:20:07;;;;;;;0.17;0.17;;;;;;;;;;5051993;28;20456;-72
2023/01/07 04:22:34;;;;;;;0.60;0.60;;;;;;;;;;5028473;28;20044;-73
2023/01/07 04:25:00;;;;;;;0.10;0.10;;;;;;;;;;5030286;28;20056;-72
2023/01/07 04:27:25;;;;;;;0.20;0.20;;;;;;;;;;5030719;28;20036;-72
2023/01/07 04:29:51;;;;;;;0.68;0.68;;;;;;;;;;5030284;28;20025;-72
2023/01/07 04:32:16;;;;;;;0.10;0.10;;;;;;;;;;5031535;28;20044;-72
2023/01/07 04:34:42;;;;;;;0.10;0.10;;;;;;;;;;5030425;28;20022;-73
2023/01/07 04:37:08;;;;;;;0.25;0.25;;;;;;;;;;5013699;28;20025;-73
2023/01/07 04:39:34;;;;;;;0.63;0.63;;;;;;;;;;5031381;28;20088;-74
2023/01/07 04:41:59;;;;;;;0.28;0.28;;;;;;;;;;5029970;28;20120;-72
2023/01/07 04:44:26;;;;;;;0.20;0.20;;;;;;;;;;5030189;28;20116;-72
2023/01/07 04:46:51;;;;;;;0.20;0.20;;;;;;;;;;5013383;28;20100;-73
2023/01/07 04:49:19;;;;;;;0.10;0.10;;;;;;;;;;5030624;28;20025;-72
2023/01/07 04:51:45;;;;;;;0.20;0.20;;;;;;;;;;5012981;28;20411;-72
2023/01/07 04:54:11;;;;;;;0.20;0.20;;;;;;;;;;5013942;28;20036;-72
2023/01/07 04:56:37;;;;;;;0.10;0.10;;;;;;;;;;5013041;28;20029;-73
2023/01/07 04:59:02;;;;;;;0.20;0.20;;;;;;;;;;5013426;28;20088;-73
2023/01/07 05:01:29;;;;;;;0.55;0.55;;;;;;;;;;5009370;28;20473;-73
2023/01/07 05:03:56;;;;;;;0.20;0.20;;;;;;;;;;5010418;28;20026;-74
2023/01/07 05:06:23;;;;;;;0.10;0.10;;;;;;;;;;5021640;28;20025;-73
2023/01/07 05:08:49;;;;;;;0.20;0.20;;;;;;;;;;5016661;28;20029;-73
2023/01/07 05:11:20;;;;;;;0.17;0.17;;;;;;;;;;5022662;28;20037;-72
2023/01/07 05:13:47;;;;;;;0.10;0.10;;;;;;;;;;5030140;28;20025;-72
2023/01/07 05:16:12;;;;;;;4.05;3.72;;;;;;;;;;5031041;28;20072;-73
2023/01/07 05:18:39;;;;;;;0.10;0.10;;;;;;;;;;5012358;28;20025;-72
2023/01/07 05:21:05;;;;;;;0.10;0.10;;;;;;;;;;5012881;28;20057;-72
2023/01/07 05:23:32;;;;;;;0.17;0.17;;;;;;;;;;5012903;28;20029;-72
2023/01/07 05:25:58;;;;;;;0.65;0.65;;;;;;;;;;5029693;28;20473;-72
2023/01/07 05:28:23;;;;;;;0.10;0.10;;;;;;;;;;5030716;28;20021;-73
2023/01/07 05:30:49;;;;;;;0.30;0.30;;;;;;;;;;5012717;28;20045;-73
2023/01/07 05:33:14;;;;;;;0.20;0.20;;;;;;;;;;5012857;28;20060;-73
2023/01/07 05:35:40;;;;;;;0.20;0.20;;;;;;;;;;5029092;28;20132;-72
2023/01/07 05:38:06;;;;;;;2.88;2.67;;;;;;;;;;5013080;28;20013;-72
2023/01/07 05:40:31;;;;;;;0.10;0.10;;;;;;;;;;5011946;28;20496;-73
2023/01/07 05:42:57;;;;;;;0.35;0.35;;;;;;;;;;5029983;28;20491;-73
2023/01/07 05:45:25;;;;;;;0.20;0.20;;;;;;;;;;5012410;28;20452;-73
2023/01/07 05:47:50;;;;;;;0.20;0.20;;;;;;;;;;5012122;28;20025;-73
2023/01/07 05:50:16;;;;;;;0.20;0.20;;;;;;;;;;5029099;28;20029;-72
2023/01/07 05:52:41;;;;;;;0.20;0.20;;;;;;;;;;5029562;28;20036;-73
2023/01/07 05:55:07;;;;;;;0.10;0.10;;;;;;;;;;5012445;28;20456;-73
2023/01/07 05:57:32;;;;;;;28.85;2.70;;;;;;;;;;5012809;28;20030;-73
2023/01/07 05:59:58;;;;;;;4.32;4.03;;;;;;;;;;5012868;28;20480;-73
2023/01/07 06:02:23;;;;;;;0.10;0.10;;;;;;;;;;5028784;28;20029;-73
2023/01/07 06:04:49;;;;;;;0.22;0.22;;;;;;;;;;5030004;28;20025;-73
2023/01/07 06:07:14;;;;;;;1.27;1.23;;;;;;;;;;5029290;28;20025;-73
2023/01/07 06:09:40;;;;;;;0.20;0.20;;;;;;;;;;5011911;28;20039;-74
2023/01/07 06:12:05;;;;;;;0.88;0.85;;;;;;;;;;5029879;28;20044;-74
2023/01/07 06:14:31;;;;;;;0.13;0.13;;;;;;;;;;5029624;28;20024;-73
2023/01/07 06:16:56;;;;;;;0.10;0.10;;;;;;;;;;5029114;28;20017;-73
2023/01/07 06:19:22;;;;;;;0.73;0.73;;;;;;;;;;5029502;28;20479;-73
2023/01/07 06:21:48;;;;;;;0.22;0.22;;;;;;;;;;5029284;28;20045;-74
2023/01/07 06:24:13;;;;;;;0.20;0.20;;;;;;;;;;5010847;28;20367;-74
2023/01/07 06:26:38;;;;;;;1.95;1.85;;;;;;;;;;4995253;28;20036;-74
2023/01/07 06:29:04;;;;;;;0.20;0.20;;;;;;;;;;5011894;28;20510;-73
2023/01/07 06:31:29;;;;;;;0.20;0.20;;;;;;;;;;5029250;28;20034;-73
2023/01/07 06:33:54;;;;;;;0.20;0.20;;;;;;;;;;5029244;28;20022;-72
2023/01/07 06:36:20;;;;;;;0.20;0.20;;;;;;;;;;5029589;28;20404;-72
2023/01/07 06:38:45;;;;;;;0.25;0.25;;;;;;;;;;5028321;28;20072;-73
2023/01/07 06:41:11;;;;;;;0.10;0.10;;;;;;;;;;5030478;28;20037;-73
2023/01/07 06:43:38;;;;;;;0.10;0.10;;;;;;;;;;5039191;28;20488;-73
2023/01/07 06:46:03;;;;;;;0.10;0.10;;;;;;;;;;5030768;28;20429;-73
2023/01/07 06:48:29;;;;;;;0.52;0.50;;;;;;;;;;5049349;28;20052;-73
2023/01/07 06:50:54;;;;;;;0.80;0.80;;;;;;;;;;5049018;28;20037;-73
2023/01/07 06:53:19;;;;;;;0.25;0.25;;;;;;;;;;5029937;28;20025;-74
2023/01/07 06:55:49;;;;;;;0.20;0.20;;;;;;;;;;5028898;28;20104;-74
2023/01/07 06:58:14;;;;;;;0.10;0.10;;;;;;;;;;5028105;28;20040;-72
2023/01/07 07:00:40;;;;;;;0.10;0.10;;;;;;;;;;5011304;28;20033;-72
2023/01/07 07:03:05;;;;;;;0.10;0.10;;;;;;;;;;5027952;28;20506;-72
2023/01/07 07:05:31;;;;;;;0.10;0.10;;;;;;;;;;5029328;28;20030;-73
2023/01/07 07:07:56;;;;;;;0.10;0.10;;;;;;;;;;5028762;28;20018;-72
2023/01/07 07:10:22;;;;;;;0.20;0.20;;;;;;;;;;5011391;28;20029;-72
2023/01/07 07:12:47;;;;;;;0.13;0.13;;;;;;;;;;4994905;28;20037;-72
2023/01/07 07:15:12;;;;;;;0.35;0.35;;;;;;;;;;5029325;28;20025;-72
2023/01/07 07:17:38;;;;;;;0.10;0.10;;;;;;;;;;5028844;28;20036;-72
2023/01/07 07:20:04;;;;;;;0.10;0.10;;;;;;;;;;5028852;28;20079;-72
2023/01/07 07:22:29;;;;;;;0.75;0.75;;;;;;;;;;5029489;28;20513;-72
2023/01/07 07:24:54;;;;;;;0.10;0.10;;;;;;;;;;5028941;28;20112;-72
2023/01/07 07:27:20;;;;;;;0.20;0.20;;;;;;;;;;5029012;28;20025;-72
2023/01/07 07:29:45;;;;;;;0.10;0.10;;;;;;;;;;5028941;28;20045;-73
2023/01/07 07:32:11;;;;;;;2.28;2.17;;;;;;;;;;5028585;28;20079;-72
2023/01/07 07:34:36;;;;;;;0.10;0.10;;;;;;;;;;5028726;28;20042;-72
2023/01/07 07:37:02;;;;;;;0.10;0.10;;;;;;;;;;5028901;28;20025;-72
2023/01/07 07:39:27;;;;;;;0.10;0.10;;;;;;;;;;5028646;28;20124;-72
2023/01/07 07:41:52;;;;;;;0.73;0.73;;;;;;;;;;5027823;28;20420;-72
2023/01/07 07:44:20;;;;;;;0.10;0.10;;;;;;;;;;5027212;28;20017;-73
2023/01/07 07:46:46;;;;;;;0.17;0.17;;;;;;;;;;5028396;28;20109;-72
2023/01/07 07:49:11;;;;;;;0.10;0.10;;;;;;;;;;5028846;28;20412;-72
2023/01/07 07:51:37;;;;;;;0.75;0.75;;;;;;;;;;5028607;28;20041;-72
2023/01/07 07:54:02;;;;;;;0.10;0.10;;;;;;;;;;5027902;28;20029;-72
2023/01/07 07:56:28;;;;;;;0.20;0.20;;;;;;;;;;5029173;28;20034;-72
2023/01/07 07:58:53;;;;;;;0.10;0.10;;;;;;;;;;5029884;28;20056;-72
2023/01/07 08:01:19;;;;;;;0.10;0.10;;;;;;;;;;5031376;28;20048;-72
2023/01/07 08:03:44;;;;;;;0.32;0.32;;;;;;;;;;5030813;28;20032;-72
2023/01/07 08:06:11;;;;;;;0.10;0.10;;;;;;;;;;5031763;28;20025;-72
2023/01/07 08:08:36;;;;;;;0.10;0.10;;;;;;;;;;5032260;28;20026;-72
2023/01/07 08:11:02;;;;;;;0.10;0.10;;;;;;;;;;5030986;28;20107;-73
2023/01/07 08:13:28;;;;;;;0.10;0.10;;;;;;;;;;5031909;28;20113;-72
2023/01/07 08:15:54;;;;;;;0.10;0.10;;;;;;;;;;5013166;28;20025;-72
2023/01/07 08:18:19;;;;;;;0.10;0.10;;;;;;;;;;5032571;28;20072;-72
2023/01/07 08:20:45;;;;;;;0.15;0.15;;;;;;;;;;5031539;28;20021;-72
2023/01/07 08:23:11;;;;;;;0.10;0.10;;;;;;;;;;5032084;28;20029;-72
2023/01/07 08:25:36;;;;;;;0.10;0.10;;;;;;;;;;5014046;28;20151;-73
2023/01/07 08:28:01;;;;;;;0.10;0.10;;;;;;;;;;5017627;28;20072;-72
2023/01/07 08:30:28;;;;;;;0.10;0.10;;;;;;;;;;5031504;28;20022;-72
2023/01/07 08:32:53;;;;;;;0.25;0.25;;;;;;;;;;5031666;28;20449;-72
2023/01/07 08:35:18;;;;;;;0.43;0.43;;;;;;;;;;5031792;28;20104;-72
2023/01/07 08:37:44;;;;;;;0.10;0.10;;;;;;;;;;5012708;28;20057;-77
2023/01/07 08:40:10;;;;;;;0.80;0.80;;;;;;;;;;5012983;28;20381;-76
2023/01/07 08:42:35;;;;;;;0.10;0.10;;;;;;;;;;5030956;28;20032;-75
2023/01/07 08:45:01;;;;;;;2.33;2.22;;;;;;;;;;5030470;28;20021;-77
2023/01/07 08:47:26;;;;;;;0.10;0.10;;;;;;;;;;5031310;28;20405;-83
2023/01/07 08:49:53;;;;;;;1.17;1.17;;;;;;;;;;5031053;28;20029;-81
2023/01/07 08:52:20;;;;;;;0.20;0.20;;;;;;;;;;5013931;28;20037;-84
2023/01/07 08:54:46;;;;;;;0.77;0.77;;;;;;;;;;5031456;28;20033;-84
2023/01/07 08:57:11;;;;;;;0.10;0.10;;;;;;;;;;5013844;28;20030;-87
2023/01/07 08:59:39;;;;;;;3.45;3.08;;;;;;;;;;5030616;28;20036;-84
2023/01/07 09:02:15;;;;;;;0.20;0.20;;;;;;;;;;5029642;28;20033;-83
2023/01/07 09:04:40;;;;;;;0.10;0.10;;;;;;;;;;5031254;28;20025;-76
2023/01/07 09:07:06;;;;;;;1.05;1.05;;;;;;;;;;5031521;28;20032;-79
2023/01/07 09:09:31;;;;;;;0.22;0.22;;;;;;;;;;5030468;28;20030;-76
2023/01/07 09:11:57;;;;;;;2.00;1.85;;;;;;;;;;5030429;28;20041;-76
2023/01/07 09:14:22;;;;;;;0.20;0.20;;;;;;;;;;5030485;28;20026;-76
2023/01/07 09:16:47;;;;;;;0.10;0.10;;;;;;;;;;5030828;28;20121;-76
2023/01/07 09:19:13;;;;;;;1.17;1.17;;;;;;;;;;5013019;28;20032;-76
2023/01/07 09:21:38;;;;;;;1.85;1.75;;;;;;;;;;5030295;28;20079;-75
2023/01/07 09:24:04;;;;;;;4.70;3.35;;;;;;;;;;5030375;28;20388;-78
2023/01/07 09:26:29;;;;;;;0.15;0.15;;;;;;;;;;5030886;28;20482;-76
2023/01/07 09:28:55;;;;;;;0.55;0.55;;;;;;;;;;5030069;28;20026;-77
2023/01/07 09:31:21;;;;;;;0.73;0.73;;;;;;;;;;5030011;28;20056;-76
2023/01/07 09:33:46;;;;;;;0.30;0.30;;;;;;;;;;5028781;28;20487;-76
2023/01/07 09:36:12;;;;;;;0.10;0.10;;;;;;;;;;5029114;28;20041;-76
2023/01/07 09:38:37;;;;;;;0.20;0.20;;;;;;;;;;5030166;28;20017;-76
2023/01/07 09:41:03;;;;;;;1.50;1.40;;;;;;;;;;5030975;28;20021;-76
2023/01/07 09:43:40;;;;;;;5.80;5.47;;;;;;;;;;5029503;28;20484;-76
2023/01/07 09:46:07;;;;;;;1.05;1.05;;;;;;;;;;5030493;28;20108;-76
2023/01/07 09:48:40;;;;;;;5.05;2.83;;;;;;;;;;5028970;28;20457;-78
2023/01/07 09:51:25;;;;;;;2.60;1.75;;;;;;;;;;5029888;28;20075;-76
2023/01/07 09:53:51;;;;;;;8.30;1.42;;;;;;;;;;5029768;28;20381;-73
2023/01/07 09:56:19;;;;;;;1.20;1.20;;;;;;;;;;5029972;28;20013;-75
2023/01/07 09:58:46;;;;;;;0.73;0.73;;;;;;;;;;5028626;28;20029;-76
2023/01/07 10:01:23;;;;;;;0.10;0.10;;;;;;;;;;5029112;28;20033;-75
2023/01/07 10:03:51;;;;;;;0.17;0.17;;;;;;;;;;5012029;28;20021;-78
2023/01/07 10:06:17;;;;;;;0.60;0.60;;;;;;;;;;5037313;28;20106;-78
2023/01/07 10:08:43;;;;;;;0.10;0.10;;;;;;;;;;5015411;28;20052;-80
2023/01/07 10:11:27;;;;;;;0.30;0.30;;;;;;;;;;5028706;28;20060;-79
2023/01/07 10:14:05;;;;;;;0.10;0.10;;;;;;;;;;5030592;28;20800;-78
2023/01/07 10:16:30;;;;;;;3.60;3.40;;;;;;;;;;5044113;28;20055;-79
2023/01/07 10:19:00;;;;;;;4.10;3.80;;;;;;;;;;5047037;28;20826;-76
2023/01/07 10:21:28;;;;;;;0.45;0.45;;;;;;;;;;5046804;28;20025;-78
2023/01/07 10:24:01;;;;;;;1.52;1.42;;;;;;;;;;5047798;28;20452;-79
2023/01/07 10:26:45;;;;;;;0.73;0.73;;;;;;;;;;5047709;28;20036;-79
2023/01/07 10:29:13;;;;;;;0.20;0.20;;;;;;;;;;5047836;28;20032;-78
2023/01/07 10:31:38;;;;;;;0.35;0.35;;;;;;;;;;5034791;28;20021;-78
2023/01/07 10:34:20;;;;;;;0.10;0.10;;;;;;;;;;5010758;28;20017;-77
2023/01/07 10:36:54;;;;;;;0.30;0.30;;;;;;;;;;5025112;28;20037;-78
2023/01/07 10:39:20;;;;;;;0.22;0.22;;;;;;;;;;5008842;28;20075;-78
2023/01/07 10:42:04;;;;;;;0.10;0.10;;;;;;;;;;5016892;28;20025;-78
2023/01/07 10:44:32;;;;;;;2.30;2.20;;;;;;;;;;5028034;28;20018;-78
2023/01/07 10:47:10;;;;;;;3.25;2.05;;;;;;;;;;5029413;28;20028;-79
2023/01/07 10:49:43;;;;;;;0.30;0.30;;;;;;;;;;5009815;28;20025;-79
2023/01/07 10:52:22;;;;;;;0.43;0.43;;;;;;;;;;5009657;28;20037;-77
2023/01/07 10:54:53;;;;;;;0.55;0.55;;;;;;;;;;5009714;28;20021;-77
2023/01/07 10:57:19;;;;;;;0.50;0.50;;;;;;;;;;5009683;28;20069;-78
2023/01/07 10:59:49;;;;;;;1.13;0.57;;;;;;;;;;5009389;28;20022;-79
2023/01/07 11:02:19;;;;;;;0.10;0.10;;;;;;;;;;4992015;28;20046;-78
2023/01/07 11:04:45;;;;;;;0.20;0.20;;;;;;;;;;5009748;28;20384;-77
2023/01/07 11:07:19;;;;;;;0.30;0.30;;;;;;;;;;5009796;28;20022;-77
2023/01/07 11:09:46;;;;;;;0.55;0.55;;;;;;;;;;5009224;28;20029;-77
2023/01/07 11:12:31;;;;;;;0.52;0.52;;;;;;;;;;5009559;28;20037;-73
2023/01/07 11:14:58;;;;;;;0.90;0.90;;;;;;;;;;4992030;28;20026;-74
2023/01/07 11:17:23;;;;;;;0.38;0.38;;;;;;;;;;5009923;28;20093;-76
2023/01/07 11:19:51;;;;;;;2.63;2.15;;;;;;;;;;5009050;28;20117;-80
2023/01/07 11:22:25;;;;;;;6.53;4.20;;;;;;;;;;5009451;28;20022;-77
2023/01/07 11:24:51;;;;;;;0.38;0.38;;;;;;;;;;5009712;28;20032;-76
2023/01/07 11:27:17;;;;;;;0.20;0.20;;;;;;;;;;5009851;28;20357;-82
2023/01/07 11:29:44;;;;;;;0.65;0.65;;;;;;;;;;5009305;28;20029;-75
2023/01/07 11:32:19;;;;;;;0.20;0.20;;;;;;;;;;5009186;28;20034;-80
2023/01/07 11:34:50;;;;;;;0.17;0.17;;;;;;;;;;5029581;28;20056;-81
2023/01/07 11:37:31;;;;;;;1.75;1.65;;;;;;;;;;5032512;28;20092;-75
2023/01/07 11:39:58;;;;;;;0.55;0.55;;;;;;;;;;5030797;28;20045;-75
2023/01/07 11:42:38;;;;;;;0.65;0.63;;;;;;;;;;5033006;28;20112;-75
2023/01/07 11:45:07;;;;;;;6.13;4.03;;;;;;;;;;5032640;28;20491;-77
2023/01/07 11:47:33;;;;;;;1.27;1.17;;;;;;;;;;5032561;28;20075;-75
2023/01/07 11:49:58;;;;;;;0.63;0.63;;;;;;;;;;5032577;28;20022;-74
2023/01/07 11:52:24;;;;;;;0.15;0.15;;;;;;;;;;5032411;28;20112;-76
2023/01/07 11:54:50;;;;;;;0.10;0.10;;;;;;;;;;5032575;28;20056;-75
2023/01/07 11:57:24;;;;;;;0.45;0.45;;;;;;;;;;5032436;28;20030;-77
2023/01/07 12:00:08;;;;;;;0.20;0.20;;;;;;;;;;5034454;28;20449;-77
2023/01/07 12:02:33;;;;;;;0.30;0.30;;;;;;;;;;5052097;28;20020;-82
2023/01/07 12:05:15;;;;;;;0.25;0.25;;;;;;;;;;5051690;28;20043;-77
2023/01/07 12:07:44;;;;;;;6.65;1.67;;;;;;;;;;5049213;28;20432;-82
2023/01/07 12:10:24;;;;;;;0.68;0.68;;;;;;;;;;5051936;28;20029;-79
2023/01/07 12:12:49;;;;;;;1.10;1.10;;;;;;;;;;5052046;28;20067;-82
2023/01/07 12:15:19;;;;;;;0.30;0.30;;;;;;;;;;5051981;28;20021;-81
2023/01/07 12:17:44;;;;;;;;;;;;;;;;;;5050958;28;20566;-80
2023/01/07 12:20:22;;;;;;;0.13;0.13;;;;;;;;;;5052286;28;19995;-81
2023/01/07 12:22:57;;;;;;;0.15;0.15;;;;;;;;;;5039985;28;20272;-79
2023/01/07 12:25:22;;;;;;;0.10;0.10;;;;;;;;;;5031657;28;20044;-79
2023/01/07 12:27:48;;;;;;;0.32;0.32;;;;;;;;;;5031784;28;20026;-81
2023/01/07 12:30:16;;;;;;;0.45;0.43;;;;;;;;;;5030114;28;20009;-79
2023/01/07 12:33:00;;;;;;;0.73;0.73;;;;;;;;;;5029331;28;20076;-79
2023/01/07 12:35:28;;;;;;;0.20;0.20;;;;;;;;;;5030025;28;20025;-79
2023/01/07 12:38:12;;;;;;;0.15;0.15;;;;;;;;;;5029991;28;20092;-80
2023/01/07 12:40:37;;;;;;;0.10;0.10;;;;;;;;;;5030085;28;20040;-79
2023/01/07 12:43:09;;;;;;;4.07;3.70;;;;;;;;;;5029198;28;20360;-79
2023/01/07 12:45:43;;;;;;;2.08;1.75;;;;;;;;;;5011020;28;20017;-79
2023/01/07 12:48:15;;;;;;;0.13;0.13;;;;;;;;;;5029666;28;20056;-82
2023/01/07 12:50:42;;;;;;;0.30;0.30;;;;;;;;;;5031013;28;20461;-79
2023/01/07 12:53:11;;;;;;;0.90;0.90;;;;;;;;;;5029172;28;20037;-79
2023/01/07 12:55:40;;;;;;;0.70;0.70;;;;;;;;;;5029318;28;20048;-80
2023/01/07 12:58:06;;;;;;;0.40;0.40;;;;;;;;;;5027796;28;20044;-79
2023/01/07 13:00:38;;;;;;;2.38;2.20;;;;;;;;;;5030614;28;20022;-80
2023/01/07 13:03:09;;;;;;;0.25;0.25;;;;;;;;;;5022938;28;20086;-79
2023/01/07 13:05:41;;;;;;;0.10;0.10;;;;;;;;;;5029867;28;20461;-79
2023/01/07 13:08:12;;;;;;;0.52;0.52;;;;;;;;;;5013126;28;20025;-79
2023/01/07 13:10:41;;;;;;;0.35;0.35;;;;;;;;;;5030718;28;20100;-79
2023/01/07 13:13:25;;;;;;;0.35;0.35;;;;;;;;;;5029964;28;20053;-79
2023/01/07 13:15:50;;;;;;;0.20;0.20;;;;;;;;;;5013577;28;20076;-79
2023/01/07 13:18:17;;;;;;;0.68;0.68;;;;;;;;;;5029819;28;20014;-79
2023/01/07 13:20:56;;;;;;;0.20;0.20;;;;;;;;;;5001577;28;20095;-79
2023/01/07 13:23:21;;;;;;;0.95;0.95;;;;;;;;;;5028965;28;20488;-79
2023/01/07 13:25:52;;;;;;;0.45;0.45;;;;;;;;;;5030674;28;20051;-79
2023/01/07 13:28:36;;;;;;;0.82;0.82;;;;;;;;;;5013058;28;20029;-79
2023/01/07 13:31:21;;;;;;;0.75;0.75;;;;;;;;;;5029777;28;20025;-79
2023/01/07 13:33:53;;;;;;;2.80;2.67;;;;;;;;;;5029692;28;20273;-79
2023/01/07 13:36:24;;;;;;;0.10;0.10;;;;;;;;;;5030663;28;20018;-79
2023/01/07 13:38:50;;;;;;;0.13;0.13;;;;;;;;;;5030233;28;20068;-79
2023/01/07 13:41:24;;;;;;;0.10;0.10;;;;;;;;;;5030273;28;20052;-80
2023/01/07 13:43:50;;;;;;;0.20;0.20;;;;;;;;;;5030621;28;20037;-81
2023/01/07 13:46:17;;;;;;;0.10;0.10;;;;;;;;;;5029751;28;20071;-80
2023/01/07 13:48:49;;;;;;;0.10;0.10;;;;;;;;;;5034706;28;20551;-79
2023/01/07 13:51:22;;;;;;;0.15;0.15;;;;;;;;;;5044592;28;20013;-79
2023/01/07 13:53:48;;;;;;;0.10;0.10;;;;;;;;;;5040014;28;20500;-79
2023/01/07 13:56:16;;;;;;;0.10;0.10;;;;;;;;;;5019953;28;20028;-79
2023/01/07 13:58:43;;;;;;;0.20;0.20;;;;;;;;;;5027781;28;20505;-79
2023/01/07 14:01:10;;;;;;;0.10;0.10;;;;;;;;;;5028105;28;20022;-79
2023/01/07 14:03:45;;;;;;;0.85;0.85;;;;;;;;;;5032121;28;20033;-79
2023/01/07 14:06:17;;;;;;;0.10;0.10;;;;;;;;;;5027497;28;20017;-80
2023/01/07 14:08:49;;;;;;;1.02;0.95;;;;;;;;;;5038457;28;20052;-78
2023/01/07 14:11:15;;;;;;;0.22;0.22;;;;;;;;;;5029848;28;20031;-79
2023/01/07 14:13:42;;;;;;;0.20;0.20;;;;;;;;;;5036454;28;20017;-79
2023/01/07 14:16:19;;;;;;;1.75;1.65;;;;;;;;;;5015811;28;20025;-80
2023/01/07 14:18:51;;;;;;;3.55;2.42;;;;;;;;;;5028802;28;20026;-79
2023/01/07 14:21:43;;;;;;;0.95;0.95;;;;;;;;;;5029953;28;20048;-79
2023/01/07 14:24:24;;;;;;;0.20;0.20;;;;;;;;;;5025901;28;20037;-80
2023/01/07 14:27:01;;;;;;;0.63;0.63;;;;;;;;;;5029530;28;20032;-79
2023/01/07 14:29:38;;;;;;;5.95;4.72;;;;;;;;;;5027701;28;20029;-78
2023/01/07 14:32:11;;;;;;;3.47;2.55;;;;;;;;;;5029161;28;20048;-79
2023/01/07 14:34:37;;;;;;;0.30;0.30;;;;;;;;;;5028886;28;20025;-79
2023/01/07 14:37:10;;;;;;;2.60;0.85;;;;;;;;;;5029362;28;20527;-79
2023/01/07 14:39:36;;;;;;;1.67;1.27;;;;;;;;;;5042168;28;20040;-78
2023/01/07 14:42:17;;;;;;;0.52;0.52;;;;;;;;;;5016595;28;20917;-79
2023/01/07 14:44:42;;;;;;;1.25;1.17;;;;;;;;;;5027939;28;20495;-78
2023/01/07 14:47:11;;;;;;;0.10;0.10;;;;;;;;;;5028308;28;20060;-79
2023/01/07 14:49:39;;;;;;;5.10;3.80;;;;;;;;;;5028552;28;20114;-79
2023/01/07 14:52:17;;;;;;;0.40;0.40;;;;;;;;;;5027023;28;20042;-78